sensor_id;sensor_type;location;lat;lon;timestamp;temperature;humidity
20574;DHT22;10445;50.216;7.912;2023-08-30T05:38:54;12.00;99.90
20574;DHT22;10445;50.216;7.912;2023-08-30T05:41:22;12.00;99.90
20574;DHT22;10445;50.216;7.912;2023-08-30T05:43:51;12.10;99.90
20574;DHT22;10445;50.216;7.912;2023-08-30T05:46:20;12.10;99.90
20574;DHT22;10445;50.216;7.912;2023-08-30T05:48:49;12.20;99.90
20574;DHT22;10445;50.216;7.912;2023-08-30T05:51:17;12.20;99.90
20574;DHT22;10445;50.216;7.912;2023-08-30T05:53:47;12.20;99.90
20574;DHT22;10445;50.216;7.912;2023-08-30T05:56:17;12.30;99.90
20574;DHT22;10445;50.216;7.912;2023-08-30T05:58:45;12.30;99.90
20574;DHT22;10445;50.216;7.912;2023-08-30T06:01:14;12.30;99.90
20574;DHT22;10445;50.216;7.912;2023-08-30T06:03:42;12.40;99.90
20574;DHT22;10445;50.216;7.912;2023-08-30T06:06:13;12.50;99.90
20574;DHT22;10445;50.216;7.912;2023-08-30T06:08:41;12.50;99.90
20574;DHT22;10445;50.216;7.912;2023-08-30T06:11:11;12.60;99.90
20574;DHT22;10445;50.216;7.912;2023-08-30T06:13:41;12.60;99.90
20574;DHT22;10445;50.216;7.912;2023-08-30T06:16:09;12.60;99.90
20574;DHT22;10445;50.216;7.912;2023-08-30T06:18:38;12.70;99.90
20574;DHT22;10445;50.216;7.912;2023-08-30T06:21:06;12.70;99.90
20574;DHT22;10445;50.216;7.912;2023-08-30T06:23:37;12.80;99.90
20574;DHT22;10445;50.216;7.912;2023-08-30T06:26:06;12.90;99.90
20574;DHT22;10445;50.216;7.912;2023-08-30T06:28:34;13.00;99.90
20574;DHT22;10445;50.216;7.912;2023-08-30T06:31:07;13.10;99.90
20574;DHT22;10445;50.216;7.912;2023-08-30T06:33:35;13.20;99.90
20574;DHT22;10445;50.216;7.912;2023-08-30T06:36:05;13.30;99.90
20574;DHT22;10445;50.216;7.912;2023-08-30T06:38:34;13.40;99.90
20574;DHT22;10445;50.216;7.912;2023-08-30T06:41:02;13.50;99.90
20574;DHT22;10445;50.216;7.912;2023-08-30T06:43:31;13.60;99.90
20574;DHT22;10445;50.216;7.912;2023-08-30T06:45:59;13.70;99.90
20574;DHT22;10445;50.216;7.912;2023-08-30T06:48:29;13.70;99.90
20574;DHT22;10445;50.216;7.912;2023-08-30T06:50:58;13.80;99.90
20574;DHT22;10445;50.216;7.912;2023-08-30T06:53:27;13.90;99.90
20574;DHT22;10445;50.216;7.912;2023-08-30T06:55:59;14.00;99.90
20574;DHT22;10445;50.216;7.912;2023-08-30T06:58:28;14.10;99.90
20574;DHT22;10445;50.216;7.912;2023-08-30T07:00:57;14.20;99.90
20574;DHT22;10445;50.216;7.912;2023-08-30T07:03:26;14.30;99.90
20574;DHT22;10445;50.216;7.912;2023-08-30T07:05:56;14.30;99.90
20574;DHT22;10445;50.216;7.912;2023-08-30T07:08:24;14.30;99.90
20574;DHT22;10445;50.216;7.912;2023-08-30T07:10:53;14.30;99.90
20574;DHT22;10445;50.216;7.912;2023-08-30T07:13:22;14.30;99.90
20574;DHT22;10445;50.216;7.912;2023-08-30T07:15:50;14.30;99.90
20574;DHT22;10445;50.216;7.912;2023-08-30T07:18:19;14.40;99.90
20574;DHT22;10445;50.216;7.912;2023-08-30T07:20:48;14.40;99.90
20574;DHT22;10445;50.216;7.912;2023-08-30T07:23:18;14.40;99.90
20574;DHT22;10445;50.216;7.912;2023-08-30T07:25:46;14.40;99.90
20574;DHT22;10445;50.216;7.912;2023-08-30T07:28:15;14.50;99.90
20574;DHT22;10445;50.216;7.912;2023-08-30T07:30:44;14.60;99.90
20574;DHT22;10445;50.216;7.912;2023-08-30T07:33:13;14.60;99.90
20574;DHT22;10445;50.216;7.912;2023-08-30T07:35:42;14.60;99.90
20574;DHT22;10445;50.216;7.912;2023-08-30T07:38:10;14.60;99.90
20574;DHT22;10445;50.216;7.912;2023-08-30T15:19:23;17.40;18.60
20574;DHT22;10445;50.216;7.912;2023-08-30T15:21:51;17.20;21.70
20574;DHT22;10445;50.216;7.912;2023-08-30T15:24:21;17.00;27.60
20574;DHT22;10445;50.216;7.912;2023-08-30T15:26:49;16.80;36.00
20574;DHT22;10445;50.216;7.912;2023-08-30T15:29:40;16.50;51.10
20574;DHT22;10445;50.216;7.912;2023-08-30T15:32:53;16.30;63.60
20574;DHT22;10445;50.216;7.912;2023-08-30T15:35:23;15.90;75.10
20574;DHT22;10445;50.216;7.912;2023-08-30T15:37:53;15.80;83.10
20574;DHT22;10445;50.216;7.912;2023-08-30T15:40:23;15.60;89.10
20574;DHT22;10445;50.216;7.912;2023-08-30T15:42:55;15.50;94.20
20574;DHT22;10445;50.216;7.912;2023-08-30T15:45:24;15.40;97.40
20574;DHT22;10445;50.216;7.912;2023-08-30T15:48:28;15.30;99.90
20574;DHT22;10445;50.216;7.912;2023-08-30T15:52:08;15.20;99.90
20574;DHT22;10445;50.216;7.912;2023-08-30T15:54:54;15.20;99.90
20574;DHT22;10445;50.216;7.912;2023-08-30T15:58:17;15.20;99.90
20574;DHT22;10445;50.216;7.912;2023-08-30T16:02:23;15.10;99.90
20574;DHT22;10445;50.216;7.912;2023-08-30T16:06:15;15.00;99.90
